createdAt,value
2022-11-06T00:00:44.935Z,13.12
2022-11-06T00:03:13.619Z,13.12
2022-11-06T00:06:01.016Z,13.11
2022-11-06T00:08:32.411Z,13.08
2022-11-06T00:11:03.006Z,13.07
2022-11-06T00:13:32.253Z,13.07
2022-11-06T00:16:05.201Z,13.06
2022-11-06T00:18:33.918Z,13.04
2022-11-06T00:21:08.602Z,13.03
2022-11-06T00:23:37.592Z,13.03
2022-11-06T00:26:09.373Z,13.01
2022-11-06T00:28:38.251Z,13.01
2022-11-06T00:31:09.051Z,12.98
2022-11-06T00:33:38.319Z,12.96
2022-11-06T00:36:09.252Z,12.95
2022-11-06T00:38:38.105Z,12.92
2022-11-06T00:41:11.150Z,12.89
2022-11-06T00:43:39.904Z,12.87
2022-11-06T00:46:11.929Z,12.85
2022-11-06T00:48:42.054Z,12.83
2022-11-06T00:51:14.125Z,12.82
2022-11-06T00:53:43.150Z,12.81
2022-11-06T00:56:15.355Z,12.79
2022-11-06T00:58:44.460Z,12.78
2022-11-06T01:01:15.471Z,12.77
2022-11-06T01:03:46.841Z,12.76
2022-11-06T01:06:17.282Z,12.75
2022-11-06T01:08:47.215Z,12.75
2022-11-06T01:11:19.259Z,12.73
2022-11-06T01:13:51.181Z,12.73
2022-11-06T01:16:19.864Z,12.73
2022-11-06T01:18:49.161Z,12.72
2022-11-06T01:21:19.793Z,12.71
2022-11-06T01:23:52.998Z,12.71
2022-11-06T01:26:37.388Z,12.69
2022-11-06T01:29:10.205Z,12.67
2022-11-06T01:31:38.951Z,12.67
2022-11-06T01:34:07.731Z,12.66
2022-11-06T01:36:36.310Z,12.66
2022-11-06T01:39:08.548Z,12.64
2022-11-06T01:41:41.013Z,12.63
2022-11-06T01:45:11.873Z,12.58
2022-11-06T01:47:40.308Z,12.58
2022-11-06T01:50:11.473Z,12.57
2022-11-06T01:52:40.843Z,12.56
2022-11-06T01:55:22.113Z,12.55
2022-11-06T01:57:52.519Z,12.55
2022-11-06T02:00:21.403Z,12.54
2022-11-06T02:02:51.279Z,12.54
2022-11-06T02:05:19.877Z,12.54
2022-11-06T02:07:49.166Z,12.54
2022-11-06T02:10:17.978Z,12.54
2022-11-06T02:12:59.865Z,12.52
2022-11-06T02:15:45.387Z,12.52
2022-11-06T02:18:51.922Z,12.49
2022-11-06T02:22:04.892Z,12.48
2022-11-06T02:25:16.100Z,12.47
2022-11-06T02:27:50.807Z,12.48
2022-11-06T02:30:20.306Z,12.49
2022-11-06T02:32:55.639Z,12.49
2022-11-06T02:35:30.146Z,12.49
2022-11-06T02:38:04.784Z,12.50
2022-11-06T02:40:38.202Z,12.51
2022-11-06T02:43:09.973Z,12.51
2022-11-06T02:45:46.945Z,12.50
2022-11-06T02:48:19.701Z,12.52
2022-11-06T02:50:51.674Z,12.51
2022-11-06T02:53:26.039Z,12.51
2022-11-06T02:55:58.950Z,12.50
2022-11-06T02:58:38.935Z,12.49
2022-11-06T03:01:16.954Z,12.48
2022-11-06T03:03:51.986Z,12.49
2022-11-06T03:06:28.253Z,12.47
2022-11-06T03:09:03.754Z,12.46
2022-11-06T03:11:35.885Z,12.44
2022-11-06T03:14:14.015Z,12.43
2022-11-06T03:16:54.870Z,12.40
2022-11-06T03:19:29.149Z,12.40
2022-11-06T03:22:05.216Z,12.38
2022-11-06T03:24:41.696Z,12.35
2022-11-06T03:27:16.355Z,12.34
2022-11-06T03:29:50.580Z,12.31
2022-11-06T03:32:27.569Z,12.29
2022-11-06T03:35:03.874Z,12.29
2022-11-06T03:37:36.208Z,12.29
2022-11-06T03:40:12.904Z,12.26
2022-11-06T03:42:44.203Z,12.25
2022-11-06T03:45:20.299Z,12.22
2022-11-06T03:47:54.255Z,12.21
2022-11-06T03:50:28.753Z,12.20
2022-11-06T03:53:01.940Z,12.20
2022-11-06T03:55:36.524Z,12.18
2022-11-06T03:58:11.249Z,12.17
2022-11-06T04:00:44.591Z,12.16
2022-11-06T04:03:20.924Z,12.15
2022-11-06T04:05:54.928Z,12.12
2022-11-06T04:08:45.589Z,12.12
2022-11-06T04:11:37.237Z,12.09
2022-11-06T04:14:07.941Z,12.06
2022-11-06T04:16:40.886Z,12.04
2022-11-06T04:19:18.366Z,12.04
2022-11-06T04:22:14.799Z,12.02
2022-11-06T04:25:13.206Z,12.02
2022-11-06T04:28:00.932Z,11.98
2022-11-06T04:30:36.477Z,11.96
2022-11-06T04:33:15.714Z,11.96
2022-11-06T04:36:01.078Z,11.95
2022-11-06T04:38:39.666Z,11.95
2022-11-06T04:41:20.975Z,11.92
2022-11-06T04:43:54.328Z,11.92
2022-11-06T04:46:28.838Z,11.89
2022-11-06T04:49:00.043Z,11.89
2022-11-06T04:51:34.672Z,11.87
2022-11-06T04:54:03.633Z,11.87
2022-11-06T04:56:37.910Z,11.86
2022-11-06T04:59:11.935Z,11.86
2022-11-06T05:01:40.448Z,11.86
2022-11-06T05:04:10.695Z,11.85
2022-11-06T05:06:39.025Z,11.85
2022-11-06T05:09:07.461Z,11.85
2022-11-06T05:11:35.786Z,11.84
2022-11-06T05:14:04.140Z,11.84
2022-11-06T05:16:32.769Z,11.84
2022-11-06T05:19:01.155Z,11.83
2022-11-06T05:21:48.571Z,11.83
2022-11-06T05:24:16.968Z,11.82
2022-11-06T05:26:45.733Z,11.81
2022-11-06T05:29:16.447Z,11.81
2022-11-06T05:31:44.843Z,11.80
2022-11-06T05:34:13.722Z,11.80
2022-11-06T05:36:43.454Z,11.80
2022-11-06T05:39:12.021Z,11.79
2022-11-06T05:41:40.464Z,11.79
2022-11-06T05:44:08.964Z,11.80
2022-11-06T05:46:52.554Z,11.80
2022-11-06T05:49:21.069Z,11.81
2022-11-06T05:51:50.846Z,11.81
2022-11-06T05:54:19.222Z,11.82
2022-11-06T05:56:47.610Z,11.82
2022-11-06T05:59:16.095Z,11.82
2022-11-06T06:01:44.754Z,11.82
2022-11-06T06:04:13.243Z,11.84
2022-11-06T06:06:41.798Z,11.84
2022-11-06T06:09:11.524Z,11.86
2022-11-06T06:11:39.873Z,11.86
2022-11-06T06:14:08.327Z,11.86
2022-11-06T06:16:36.889Z,11.87
2022-11-06T06:19:05.292Z,11.89
2022-11-06T06:21:33.648Z,11.90
2022-11-06T06:24:01.998Z,11.91
2022-11-06T06:26:31.899Z,11.93
2022-11-06T06:29:02.189Z,11.96
2022-11-06T06:31:30.807Z,11.97
2022-11-06T06:33:59.181Z,12.02
2022-11-06T06:36:27.545Z,12.06
2022-11-06T06:38:56.636Z,12.08
2022-11-06T06:41:24.977Z,12.12
2022-11-06T06:43:54.778Z,12.15
2022-11-06T06:46:23.079Z,12.19
2022-11-06T06:48:51.750Z,12.26
2022-11-06T06:51:23.908Z,12.29
2022-11-06T06:53:52.780Z,12.36
2022-11-06T06:56:21.211Z,12.40
2022-11-06T06:58:49.816Z,12.45
2022-11-06T07:01:19.639Z,12.51
2022-11-06T07:03:48.085Z,12.56
2022-11-06T07:06:18.791Z,12.61
2022-11-06T07:08:47.561Z,12.68
2022-11-06T07:11:15.941Z,12.75
2022-11-06T07:13:44.285Z,12.82
2022-11-06T07:16:13.747Z,12.89
2022-11-06T07:18:43.538Z,12.97
2022-11-06T07:21:14.032Z,13.04
2022-11-06T07:23:42.800Z,13.10
2022-11-06T07:26:11.236Z,13.20
2022-11-06T07:28:39.695Z,13.27
2022-11-06T07:31:09.292Z,13.35
2022-11-06T07:33:37.826Z,13.42
2022-11-06T07:36:10.549Z,13.48
2022-11-06T07:38:40.473Z,13.56
2022-11-06T07:41:11.355Z,13.62
2022-11-06T07:43:40.678Z,13.70
2022-11-06T07:46:12.122Z,13.77
2022-11-06T07:48:40.940Z,13.86
2022-11-06T07:51:12.499Z,13.92
2022-11-06T07:53:41.339Z,14.00
2022-11-06T07:56:10.252Z,14.07
2022-11-06T07:58:39.125Z,14.15
2022-11-06T08:01:08.073Z,14.24
2022-11-06T08:03:36.455Z,14.33
2022-11-06T08:06:06.211Z,14.39
2022-11-06T08:08:35.994Z,14.46
2022-11-06T08:11:04.869Z,14.53
2022-11-06T08:13:35.440Z,14.59
2022-11-06T08:16:08.902Z,14.65
2022-11-06T08:18:37.653Z,14.74
2022-11-06T08:21:07.172Z,14.83
2022-11-06T08:23:37.600Z,14.92
2022-11-06T08:26:07.677Z,15.00
2022-11-06T08:28:36.402Z,15.09
2022-11-06T08:31:09.161Z,15.16
2022-11-06T08:33:39.497Z,15.24
2022-11-06T08:36:10.581Z,15.32
2022-11-06T08:38:40.899Z,15.39
2022-11-06T08:41:11.353Z,15.49
2022-11-06T08:43:40.483Z,15.56
2022-11-06T08:46:10.825Z,15.65
2022-11-06T08:48:39.351Z,15.74
2022-11-06T08:51:08.562Z,15.80
2022-11-06T08:53:37.302Z,15.88
2022-11-06T08:56:08.331Z,15.94
2022-11-06T08:58:37.165Z,16.02
2022-11-06T09:01:05.651Z,16.09
2022-11-06T09:03:34.083Z,16.18
2022-11-06T09:06:02.679Z,16.23
2022-11-06T09:08:31.034Z,16.27
2022-11-06T09:10:59.909Z,16.32
2022-11-06T09:13:29.622Z,16.36
2022-11-06T09:15:57.991Z,16.40
2022-11-06T09:18:26.358Z,16.45
2022-11-06T09:20:57.040Z,16.50
2022-11-06T09:23:26.407Z,16.53
2022-11-06T09:25:54.815Z,16.55
2022-11-06T09:28:23.142Z,16.57
2022-11-06T09:30:52.887Z,16.61
2022-11-06T09:33:21.709Z,16.65
2022-11-06T09:35:50.197Z,16.67
2022-11-06T09:38:19.196Z,16.71
2022-11-06T09:40:52.629Z,16.73
2022-11-06T09:44:03.586Z,16.73
2022-11-06T09:46:28.316Z,16.73
2022-11-06T09:49:01.811Z,16.73
2022-11-06T09:51:38.150Z,16.73
2022-11-06T09:54:16.201Z,16.71
2022-11-06T09:56:49.419Z,16.72
2022-11-06T09:59:20.678Z,16.72
2022-11-06T10:01:55.513Z,16.74
2022-11-06T10:04:37.614Z,16.78
2022-11-06T10:07:06.216Z,16.85
2022-11-06T10:09:35.232Z,16.87
2022-11-06T10:12:21.659Z,16.84
2022-11-06T10:15:05.446Z,16.84
2022-11-06T10:17:52.001Z,16.81
2022-11-06T10:20:27.316Z,16.81
2022-11-06T10:23:06.831Z,16.86
2022-11-06T10:25:47.959Z,17.05
2022-11-06T10:28:43.370Z,17.37
2022-11-06T10:31:24.855Z,17.72
2022-11-06T10:34:01.408Z,18.06
2022-11-06T10:36:37.217Z,18.38
2022-11-06T10:39:13.543Z,18.70
2022-11-06T10:41:44.949Z,19.00
2022-11-06T10:44:23.504Z,19.29
2022-11-06T10:46:57.316Z,19.62
2022-11-06T10:49:36.507Z,19.94
2022-11-06T10:52:38.794Z,20.23
2022-11-06T10:55:49.786Z,20.51
2022-11-06T10:58:22.603Z,20.82
2022-11-06T11:00:52.573Z,20.99
2022-11-06T11:03:28.213Z,21.24
2022-11-06T11:05:58.748Z,21.51
2022-11-06T11:08:42.624Z,21.83
2022-11-06T11:11:24.680Z,22.17
2022-11-06T11:14:15.087Z,22.51
2022-11-06T11:16:46.943Z,22.87
2022-11-06T11:19:28.412Z,23.22
2022-11-06T11:22:01.419Z,23.50
2022-11-06T11:24:30.611Z,23.71
2022-11-06T11:27:04.061Z,23.85
2022-11-06T11:29:35.844Z,24.02
2022-11-06T11:32:08.276Z,24.31
2022-11-06T11:34:49.396Z,24.62
2022-11-06T11:37:28.490Z,24.85
2022-11-06T11:40:18.096Z,24.99
2022-11-06T11:42:46.945Z,25.22
2022-11-06T11:45:20.193Z,25.43
2022-11-06T11:47:52.441Z,25.71
2022-11-06T11:50:30.736Z,26.02
2022-11-06T11:53:10.525Z,26.25
2022-11-06T11:55:45.464Z,26.43
2022-11-06T11:58:24.049Z,26.66
2022-11-06T12:00:57.164Z,26.94
2022-11-06T12:03:29.525Z,27.25
2022-11-06T12:06:11.365Z,27.53
2022-11-06T12:08:47.269Z,27.86
2022-11-06T12:11:22.298Z,27.97
2022-11-06T12:14:33.706Z,28.14
2022-11-06T12:17:16.201Z,28.50
2022-11-06T12:19:53.354Z,28.81
2022-11-06T12:22:29.569Z,28.92
2022-11-06T12:25:08.730Z,28.90
2022-11-06T12:27:42.276Z,29.00
2022-11-06T12:30:15.917Z,29.10
2022-11-06T12:33:10.981Z,29.08
2022-11-06T12:35:43.862Z,29.17
2022-11-06T12:38:28.237Z,29.39
2022-11-06T12:41:04.425Z,29.65
2022-11-06T12:43:43.159Z,29.71
2022-11-06T12:46:32.274Z,29.59
2022-11-06T12:50:03.566Z,29.49
2022-11-06T12:53:00.789Z,29.62
2022-11-06T12:55:36.315Z,29.88
2022-11-06T12:58:30.740Z,30.24
2022-11-06T13:01:10.174Z,30.45
2022-11-06T13:04:04.821Z,29.80
2022-11-06T13:07:03.221Z,28.48
2022-11-06T13:09:39.668Z,27.36
2022-11-06T13:12:17.666Z,26.26
2022-11-06T13:15:04.166Z,25.29
2022-11-06T13:17:42.072Z,24.47
2022-11-06T13:20:23.818Z,23.71
2022-11-06T13:23:01.734Z,23.08
2022-11-06T13:25:41.132Z,22.54
2022-11-06T13:28:29.956Z,22.04
2022-11-06T13:31:03.787Z,21.66
2022-11-06T13:33:41.410Z,21.31
2022-11-06T13:36:11.222Z,20.99
2022-11-06T13:38:47.100Z,20.72
2022-11-06T13:41:20.623Z,20.45
2022-11-06T13:43:56.950Z,20.18
2022-11-06T13:46:39.660Z,19.94
2022-11-06T13:49:23.724Z,19.69
2022-11-06T13:51:56.248Z,19.50
2022-11-06T13:54:47.902Z,19.30
2022-11-06T13:58:07.147Z,19.08
2022-11-06T14:00:50.044Z,18.95
2022-11-06T14:04:09.718Z,18.76
2022-11-06T14:06:40.676Z,18.67
2022-11-06T14:09:17.189Z,18.54
2022-11-06T14:11:52.911Z,18.43
2022-11-06T14:14:28.480Z,18.31
2022-11-06T14:17:21.950Z,18.19
2022-11-06T14:20:32.651Z,18.04
2022-11-06T14:23:48.029Z,17.93
2022-11-06T14:26:46.456Z,17.81
2022-11-06T14:29:59.120Z,17.71
2022-11-06T14:32:44.288Z,17.67
2022-11-06T14:35:54.122Z,17.56
2022-11-06T14:38:44.109Z,17.50
2022-11-06T14:42:01.988Z,17.39
2022-11-06T14:44:50.594Z,17.36
2022-11-06T14:47:35.548Z,17.30
2022-11-06T14:50:29.128Z,17.26
2022-11-06T14:53:06.718Z,17.20
2022-11-06T14:55:45.009Z,17.12
2022-11-06T14:58:19.987Z,17.07
2022-11-06T15:00:56.067Z,17.00
2022-11-06T15:03:31.891Z,16.95
2022-11-06T15:06:07.908Z,16.89
2022-11-06T15:09:00.411Z,16.81
2022-11-06T15:11:58.589Z,16.73
2022-11-06T15:15:01.853Z,16.65
2022-11-06T15:17:37.939Z,16.60
2022-11-06T15:20:25.006Z,16.54
2022-11-06T15:23:42.570Z,16.43
2022-11-06T15:26:26.483Z,16.38
2022-11-06T15:29:13.851Z,16.33
2022-11-06T15:31:45.790Z,16.29
2022-11-06T15:34:21.120Z,16.23
2022-11-06T15:36:58.150Z,16.21
2022-11-06T15:39:40.899Z,16.14
2022-11-06T15:42:17.094Z,16.10
2022-11-06T15:44:48.631Z,16.06
2022-11-06T15:47:26.309Z,16.01
2022-11-06T15:50:15.916Z,15.94
2022-11-06T15:52:46.955Z,15.92
2022-11-06T15:55:23.661Z,15.88
2022-11-06T15:57:54.711Z,15.83
2022-11-06T16:00:28.712Z,15.78
2022-11-06T16:03:03.934Z,15.75
2022-11-06T16:05:37.095Z,15.71
2022-11-06T16:08:07.898Z,15.67
2022-11-06T16:10:40.687Z,15.65
2022-11-06T16:13:14.077Z,15.60
2022-11-06T16:15:54.408Z,15.59
2022-11-06T16:18:31.572Z,15.56
2022-11-06T16:23:57.466Z,15.50
2022-11-06T16:26:38.302Z,15.45
2022-11-06T16:29:19.558Z,15.41
2022-11-06T16:31:50.019Z,15.39
2022-11-06T16:34:34.819Z,15.38
2022-11-06T16:37:05.590Z,15.36
2022-11-06T16:39:50.196Z,15.33
2022-11-06T16:42:40.841Z,15.31
2022-11-06T16:45:24.499Z,15.27
2022-11-06T16:48:32.181Z,15.23
2022-11-06T16:51:15.317Z,15.21
2022-11-06T16:53:58.520Z,15.19
2022-11-06T16:56:32.339Z,15.19
2022-11-06T16:59:07.269Z,15.16
2022-11-06T17:01:44.951Z,15.14
2022-11-06T17:04:23.087Z,15.12
2022-11-06T17:06:59.827Z,15.12
2022-11-06T17:09:35.043Z,15.07
2022-11-06T17:12:11.964Z,15.08
2022-11-06T17:14:45.602Z,15.05
2022-11-06T17:17:30.267Z,15.00
2022-11-06T17:19:59.967Z,15.00
2022-11-06T17:22:31.770Z,14.98
2022-11-06T17:25:01.930Z,14.95
2022-11-06T17:27:31.493Z,14.93
2022-11-06T17:30:03.875Z,14.93
2022-11-06T17:32:35.838Z,14.90
2022-11-06T17:35:06.729Z,14.89
2022-11-06T17:37:38.701Z,14.89
2022-11-06T17:40:10.348Z,14.85
2022-11-06T17:42:40.182Z,14.82
2022-11-06T17:45:11.028Z,14.78
2022-11-06T17:47:42.702Z,14.74
2022-11-06T17:50:13.385Z,14.71
2022-11-06T17:52:43.721Z,14.68
2022-11-06T17:55:13.314Z,14.64
2022-11-06T17:57:44.218Z,14.64
2022-11-06T18:00:15.287Z,14.61
2022-11-06T18:03:00.891Z,14.60
2022-11-06T18:05:32.572Z,14.59
2022-11-06T18:08:02.552Z,14.58
2022-11-06T18:10:41.859Z,14.59
2022-11-06T18:13:12.808Z,14.57
2022-11-06T18:15:42.796Z,14.57
2022-11-06T18:18:17.380Z,14.57
2022-11-06T18:20:48.006Z,14.57
2022-11-06T18:23:19.999Z,14.56
2022-11-06T18:25:59.064Z,14.56
2022-11-06T18:28:29.316Z,14.56
2022-11-06T18:31:01.674Z,14.55
2022-11-06T18:33:33.132Z,14.54
2022-11-06T18:36:03.745Z,14.53
2022-11-06T18:38:34.381Z,14.52
2022-11-06T18:41:13.569Z,14.48
2022-11-06T18:43:49.776Z,14.49
2022-11-06T18:46:21.587Z,14.48
2022-11-06T18:48:54.483Z,14.47
2022-11-06T18:51:35.103Z,14.46
2022-11-06T18:54:09.334Z,14.44
2022-11-06T18:56:40.362Z,14.42
2022-11-06T18:59:15.560Z,14.39
2022-11-06T19:01:46.539Z,14.38
2022-11-06T19:04:17.965Z,14.36
2022-11-06T19:06:48.300Z,14.36
2022-11-06T19:09:19.853Z,14.37
2022-11-06T19:11:52.016Z,14.36
2022-11-06T19:14:22.719Z,14.35
2022-11-06T19:16:53.861Z,14.36
2022-11-06T19:19:26.223Z,14.33
2022-11-06T19:21:56.226Z,14.34
2022-11-06T19:24:26.864Z,14.31
2022-11-06T19:26:57.474Z,14.29
2022-11-06T19:29:28.135Z,14.24
2022-11-06T19:32:02.552Z,14.20
2022-11-06T19:34:38.883Z,14.16
2022-11-06T19:37:13.312Z,14.13
2022-11-06T19:39:43.318Z,14.08
2022-11-06T19:42:16.613Z,14.04
2022-11-06T19:44:47.351Z,13.98
2022-11-06T19:47:18.576Z,13.94
2022-11-06T19:49:51.174Z,13.90
2022-11-06T19:52:42.509Z,13.88
2022-11-06T19:55:26.097Z,13.84
2022-11-06T19:58:00.384Z,13.82
2022-11-06T20:00:32.526Z,13.79
2022-11-06T20:03:03.953Z,13.79
2022-11-06T20:05:40.836Z,13.77
2022-11-06T20:08:12.543Z,13.74
2022-11-06T20:10:43.246Z,13.71
2022-11-06T20:13:14.439Z,13.69
2022-11-06T20:15:44.903Z,13.67
2022-11-06T20:18:18.889Z,13.66
2022-11-06T20:20:51.809Z,13.64
2022-11-06T20:23:22.280Z,13.65
2022-11-06T20:25:55.374Z,13.63
2022-11-06T20:28:26.670Z,13.62
2022-11-06T20:30:57.949Z,13.61
2022-11-06T20:33:31.846Z,13.61
2022-11-06T20:36:16.947Z,13.57
2022-11-06T20:38:47.555Z,13.57
2022-11-06T20:41:18.939Z,13.57
2022-11-06T20:43:52.319Z,13.55
2022-11-06T20:46:29.724Z,13.54
2022-11-06T20:48:59.799Z,13.53
2022-11-06T20:51:42.890Z,13.52
2022-11-06T20:54:25.034Z,13.49
2022-11-06T20:56:55.216Z,13.48
2022-11-06T20:59:25.589Z,13.47
2022-11-06T21:01:55.704Z,13.45
2022-11-06T21:04:26.828Z,13.45
2022-11-06T21:06:58.928Z,13.45
2022-11-06T21:09:28.518Z,13.45
2022-11-06T21:11:58.309Z,13.45
2022-11-06T21:14:27.843Z,13.45
2022-11-06T21:16:59.128Z,13.47
2022-11-06T21:19:30.273Z,13.47
2022-11-06T21:22:01.304Z,13.49
2022-11-06T21:24:30.200Z,13.50
2022-11-06T21:26:59.664Z,13.49
2022-11-06T21:29:28.083Z,13.49
2022-11-06T21:31:58.258Z,13.47
2022-11-06T21:34:27.940Z,13.45
2022-11-06T21:37:02.139Z,13.42
2022-11-06T21:39:36.267Z,13.35
2022-11-06T21:42:05.978Z,13.31
2022-11-06T21:44:35.434Z,13.26
2022-11-06T21:47:04.110Z,13.23
2022-11-06T21:49:32.801Z,13.18
2022-11-06T21:52:25.169Z,13.13
2022-11-06T21:55:15.856Z,13.09
2022-11-06T21:57:44.209Z,13.05
2022-11-06T22:00:14.929Z,13.00
2022-11-06T22:02:43.553Z,12.99
2022-11-06T22:05:12.383Z,12.97
2022-11-06T22:07:40.746Z,12.96
2022-11-06T22:10:11.488Z,12.94
2022-11-06T22:12:39.920Z,12.92
2022-11-06T22:15:10.802Z,12.88
2022-11-06T22:17:39.220Z,12.88
2022-11-06T22:20:09.225Z,12.84
2022-11-06T22:22:37.544Z,12.84
2022-11-06T22:25:07.595Z,12.81
2022-11-06T22:27:40.913Z,12.79
2022-11-06T22:30:11.640Z,12.76
2022-11-06T22:32:39.986Z,12.76
2022-11-06T22:35:09.288Z,12.75
2022-11-06T22:37:37.611Z,12.73
2022-11-06T22:40:08.029Z,12.72
2022-11-06T22:42:37.791Z,12.71
2022-11-06T22:45:08.350Z,12.67
2022-11-06T22:47:36.815Z,12.66
2022-11-06T22:50:08.311Z,12.65
2022-11-06T22:52:36.677Z,12.65
2022-11-06T22:55:06.221Z,12.65
2022-11-06T22:57:34.722Z,12.65
2022-11-06T23:00:06.493Z,12.64
2022-11-06T23:02:35.584Z,12.65
2022-11-06T23:05:04.087Z,12.66
2022-11-06T23:07:32.441Z,12.66
2022-11-06T23:10:00.791Z,12.64
2022-11-06T23:12:29.132Z,12.64
2022-11-06T23:14:58.622Z,12.62
2022-11-06T23:17:29.312Z,12.62
2022-11-06T23:19:57.852Z,12.61
2022-11-06T23:22:42.863Z,12.58
2022-11-06T23:25:12.516Z,12.54
2022-11-06T23:27:48.591Z,12.51
2022-11-06T23:30:18.441Z,12.48
2022-11-06T23:32:48.586Z,12.47
2022-11-06T23:35:18.294Z,12.44
2022-11-06T23:37:47.876Z,12.42
2022-11-06T23:40:16.314Z,12.40
2022-11-06T23:42:44.649Z,12.37
2022-11-06T23:45:31.263Z,12.36
2022-11-06T23:48:05.867Z,12.31
2022-11-06T23:50:36.718Z,12.28
2022-11-06T23:53:05.100Z,12.26
2022-11-06T23:55:33.590Z,12.25
2022-11-06T23:58:01.974Z,12.22
